createdAt,value
2022-08-09T00:00:29.502Z,6.10
2022-08-09T00:04:03.472Z,6.90
2022-08-09T00:06:25.959Z,5.20
2022-08-09T00:09:08.106Z,6.10
2022-08-09T00:12:04.034Z,5.60
2022-08-09T00:14:47.472Z,6.70
2022-08-09T00:18:05.773Z,6.10
2022-08-09T00:20:31.565Z,5.60
2022-08-09T00:23:57.762Z,5.40
2022-08-09T00:26:18.317Z,5.70
2022-08-09T00:29:02.054Z,6.00
2022-08-09T00:31:59.865Z,6.30
2022-08-09T00:34:52.088Z,6.20
2022-08-09T00:37:35.207Z,6.00
2022-08-09T00:40:19.650Z,6.10
2022-08-09T00:44:11.595Z,5.90
2022-08-09T00:46:10.078Z,6.30
2022-08-09T00:48:54.513Z,7.80
2022-08-09T00:51:54.307Z,7.20
2022-08-09T00:54:38.168Z,6.70
2022-08-09T00:57:34.363Z,6.40
2022-08-09T01:00:22.129Z,6.50
2022-08-09T01:03:11.196Z,7.30
2022-08-09T01:06:17.583Z,6.60
2022-08-09T01:09:13.388Z,6.70
2022-08-09T01:12:12.737Z,7.00
2022-08-09T01:15:17.527Z,6.10
2022-08-09T01:18:04.030Z,6.20
2022-08-09T01:21:17.362Z,5.90
2022-08-09T01:24:16.412Z,6.20
2022-08-09T01:27:13.299Z,5.80
2022-08-09T01:29:59.299Z,6.20
2022-08-09T01:32:47.515Z,5.90
2022-08-09T01:35:38.363Z,6.00
2022-08-09T01:38:26.914Z,5.60
2022-08-09T01:41:25.917Z,5.40
2022-08-09T01:44:11.115Z,6.20
2022-08-09T01:46:54.808Z,6.20
2022-08-09T01:49:38.986Z,6.60
2022-08-09T01:52:23.656Z,6.40
2022-08-09T01:55:10.457Z,6.30
2022-08-09T01:57:55.497Z,5.90
2022-08-09T02:00:38.930Z,6.30
2022-08-09T02:03:22.427Z,6.20
2022-08-09T02:06:07.458Z,6.90
2022-08-09T02:08:58.923Z,6.00
2022-08-09T02:11:43.866Z,6.10
2022-08-09T02:14:29.093Z,5.90
2022-08-09T02:17:29.425Z,6.00
2022-08-09T02:20:15.876Z,6.30
2022-08-09T02:23:16.917Z,7.40
2022-08-09T02:26:01.733Z,6.90
2022-08-09T02:28:52.025Z,7.20
2022-08-09T02:31:39.045Z,8.20
2022-08-09T02:34:40.618Z,7.10
2022-08-09T02:37:31.634Z,7.20
2022-08-09T02:40:24.886Z,7.00
2022-08-09T02:43:13.229Z,6.50
2022-08-09T02:45:57.577Z,7.40
2022-08-09T02:48:46.016Z,6.90
2022-08-09T02:51:37.039Z,7.10
2022-08-09T02:54:24.872Z,6.80
2022-08-09T02:57:13.684Z,7.40
2022-08-09T03:00:21.546Z,7.70
2022-08-09T03:03:09.427Z,7.50
2022-08-09T03:05:57.102Z,6.90
2022-08-09T03:08:44.843Z,7.10
2022-08-09T03:11:29.883Z,7.70
2022-08-09T03:14:32.195Z,7.70
2022-08-09T03:17:26.413Z,6.80
2022-08-09T03:20:11.526Z,7.30
2022-08-09T03:22:54.957Z,6.70
2022-08-09T03:26:03.103Z,7.00
2022-08-09T03:28:47.521Z,7.00
2022-08-09T03:31:42.440Z,7.50
2022-08-09T03:34:25.037Z,7.90
2022-08-09T03:37:29.220Z,7.60
2022-08-09T03:40:13.214Z,8.30
2022-08-09T03:42:55.196Z,8.60
2022-08-09T03:46:04.704Z,7.50
2022-08-09T03:48:42.905Z,6.70
2022-08-09T03:51:56.819Z,6.90
2022-08-09T03:54:39.780Z,6.90
2022-08-09T03:57:22.430Z,7.80
2022-08-09T04:00:05.963Z,7.40
2022-08-09T04:02:57.411Z,7.20
2022-08-09T04:05:40.416Z,7.50
2022-08-09T04:08:28.899Z,7.40
2022-08-09T04:11:12.901Z,7.00
2022-08-09T04:14:53.055Z,7.90
2022-08-09T04:16:57.923Z,7.70
2022-08-09T04:19:50.803Z,7.30
2022-08-09T04:22:33.760Z,7.50
2022-08-09T04:25:15.761Z,7.90
2022-08-09T04:27:59.857Z,8.10
2022-08-09T04:30:44.970Z,7.70
2022-08-09T04:33:28.853Z,7.70
2022-08-09T04:36:11.228Z,8.50
2022-08-09T04:38:55.008Z,7.90
2022-08-09T04:41:43.979Z,8.20
2022-08-09T04:44:26.337Z,8.30
2022-08-09T04:47:09.256Z,8.70
2022-08-09T04:49:55.043Z,8.40
2022-08-09T04:52:37.748Z,7.90
2022-08-09T04:55:19.756Z,7.80
2022-08-09T04:58:09.629Z,7.90
2022-08-09T05:00:51.842Z,8.00
2022-08-09T05:03:43.170Z,9.30
2022-08-09T05:06:27.927Z,7.60
2022-08-09T05:09:11.150Z,8.70
2022-08-09T05:11:55.091Z,8.30
2022-08-09T05:14:38.963Z,9.10
2022-08-09T05:18:50.898Z,7.90
2022-08-09T05:20:29.834Z,8.20
2022-08-09T05:23:57.815Z,8.20
2022-08-09T05:26:15.994Z,8.50
2022-08-09T05:29:17.260Z,8.00
2022-08-09T05:32:02.369Z,8.20
2022-08-09T05:34:45.786Z,7.90
2022-08-09T05:37:27.827Z,8.10
2022-08-09T05:40:10.904Z,8.60
2022-08-09T05:42:53.769Z,8.30
2022-08-09T05:45:53.066Z,8.60
2022-08-09T05:48:38.348Z,8.60
2022-08-09T05:51:42.707Z,9.90
2022-08-09T05:54:22.414Z,8.40
2022-08-09T05:57:06.350Z,8.70
2022-08-09T05:59:48.356Z,8.70
2022-08-09T06:02:30.427Z,8.60
2022-08-09T06:05:14.401Z,8.70
2022-08-09T06:08:05.486Z,8.70
2022-08-09T06:10:50.172Z,9.20
2022-08-09T06:13:34.277Z,8.90
2022-08-09T06:16:16.478Z,8.90
2022-08-09T06:18:59.135Z,8.40
2022-08-09T06:21:50.299Z,8.60
2022-08-09T06:24:33.725Z,8.20
2022-08-09T06:27:17.215Z,8.70
2022-08-09T06:30:08.820Z,8.60
2022-08-09T06:33:00.310Z,8.70
2022-08-09T06:35:57.249Z,8.70
2022-08-09T06:38:47.241Z,8.80
2022-08-09T06:41:58.893Z,8.80
2022-08-09T06:44:35.046Z,8.00
2022-08-09T06:47:17.915Z,8.70
2022-08-09T06:50:13.742Z,8.00
2022-08-09T06:52:59.076Z,7.50
2022-08-09T06:55:40.960Z,8.20
2022-08-09T06:58:40.610Z,9.20
2022-08-09T07:01:27.662Z,11.00
2022-08-09T07:04:27.956Z,11.00
2022-08-09T07:07:11.836Z,11.20
2022-08-09T07:10:10.489Z,9.90
2022-08-09T07:12:57.416Z,9.30
2022-08-09T07:16:35.356Z,9.00
2022-08-09T07:18:42.244Z,9.10
2022-08-09T07:21:24.959Z,8.60
2022-08-09T07:24:12.796Z,9.20
2022-08-09T07:26:54.893Z,8.00
2022-08-09T07:29:38.065Z,7.50
2022-08-09T07:32:32.819Z,8.00
2022-08-09T07:35:16.064Z,7.40
2022-08-09T07:37:59.413Z,8.30
2022-08-09T07:41:08.031Z,8.00
2022-08-09T07:43:55.853Z,7.80
2022-08-09T07:46:38.546Z,8.00
2022-08-09T07:49:20.850Z,7.00
2022-08-09T07:52:17.036Z,8.50
2022-08-09T07:54:59.901Z,8.00
2022-08-09T07:57:47.261Z,8.80
2022-08-09T08:00:36.559Z,8.70
2022-08-09T08:03:19.206Z,9.10
2022-08-09T08:06:06.842Z,8.70
2022-08-09T08:09:03.450Z,8.00
2022-08-09T08:12:10.577Z,8.60
2022-08-09T08:14:49.388Z,9.10
2022-08-09T08:17:52.313Z,9.10
2022-08-09T08:20:36.859Z,9.40
2022-08-09T08:23:20.981Z,8.90
2022-08-09T08:26:11.569Z,8.00
2022-08-09T08:28:55.217Z,8.50
2022-08-09T08:32:02.238Z,8.20
2022-08-09T08:34:39.327Z,7.40
2022-08-09T08:37:25.143Z,7.40
2022-08-09T08:40:25.565Z,7.50
2022-08-09T08:43:13.775Z,7.70
2022-08-09T08:46:32.478Z,7.90
2022-08-09T08:49:07.800Z,7.70
2022-08-09T08:52:01.774Z,6.60
2022-08-09T08:54:46.488Z,7.20
2022-08-09T08:57:30.331Z,8.80
2022-08-09T09:00:27.267Z,5.90
2022-08-09T09:03:16.438Z,5.90
2022-08-09T09:06:05.903Z,5.70
2022-08-09T09:08:52.593Z,5.60
2022-08-09T09:11:38.527Z,5.70
2022-08-09T09:14:23.914Z,5.90
2022-08-09T09:17:06.299Z,4.90
2022-08-09T09:19:54.442Z,5.30
2022-08-09T09:23:01.586Z,4.30
2022-08-09T09:26:01.083Z,4.20
2022-08-09T09:29:04.075Z,4.00
2022-08-09T09:31:54.426Z,4.20
2022-08-09T09:35:02.557Z,4.00
2022-08-09T09:37:46.291Z,4.00
2022-08-09T09:40:46.575Z,5.20
2022-08-09T09:43:28.940Z,4.20
2022-08-09T09:46:41.970Z,4.80
2022-08-09T09:49:50.235Z,4.50
2022-08-09T09:52:36.005Z,4.20
2022-08-09T09:55:31.963Z,4.60
2022-08-09T09:58:19.730Z,4.00
2022-08-09T10:01:02.371Z,4.50
2022-08-09T10:03:57.406Z,4.10
2022-08-09T10:06:47.148Z,4.30
2022-08-09T10:09:54.388Z,4.50
2022-08-09T10:12:43.875Z,4.10
2022-08-09T10:16:09.034Z,3.40
2022-08-09T10:18:54.518Z,4.00
2022-08-09T10:21:46.080Z,4.50
2022-08-09T10:24:36.092Z,4.00
2022-08-09T10:31:38.152Z,4.20
2022-08-09T10:34:04.828Z,3.60
2022-08-09T10:36:18.647Z,6.00
2022-08-09T10:39:02.576Z,3.30
2022-08-09T10:41:45.217Z,3.10
2022-08-09T10:44:31.699Z,3.40
2022-08-09T10:48:26.313Z,3.30
2022-08-09T10:51:00.104Z,3.10
2022-08-09T10:54:04.786Z,3.50
2022-08-09T10:56:47.166Z,3.20
2022-08-09T10:59:31.699Z,3.00
2022-08-09T11:03:11.918Z,3.20
2022-08-09T11:06:33.513Z,3.60
2022-08-09T11:09:41.247Z,4.20
2022-08-09T11:12:30.341Z,3.40
2022-08-09T11:15:34.192Z,2.90
2022-08-09T11:18:42.974Z,3.60
2022-08-09T11:22:21.580Z,4.20
2022-08-09T11:28:05.434Z,3.60
2022-08-09T11:30:57.497Z,4.10
2022-08-09T11:33:51.115Z,3.70
2022-08-09T11:36:41.881Z,3.90
2022-08-09T11:39:24.422Z,4.60
2022-08-09T11:42:08.679Z,3.80
2022-08-09T11:47:47.477Z,3.20
2022-08-09T11:50:55.787Z,3.80
2022-08-09T11:53:59.979Z,4.00
2022-08-09T11:56:42.653Z,4.50
2022-08-09T11:59:33.695Z,4.70
2022-08-09T12:02:34.529Z,4.30
2022-08-09T12:05:22.704Z,4.30
2022-08-09T12:08:12.424Z,4.20
2022-08-09T12:11:02.889Z,4.10
2022-08-09T12:14:07.508Z,4.10
2022-08-09T12:16:49.721Z,4.00
2022-08-09T12:19:35.755Z,4.40
2022-08-09T12:22:22.832Z,4.50
2022-08-09T12:25:36.089Z,4.30
2022-08-09T12:29:13.892Z,4.30
2022-08-09T12:31:58.465Z,4.50
2022-08-09T12:34:37.647Z,4.60
2022-08-09T12:37:31.546Z,4.00
2022-08-09T12:40:16.965Z,4.00
2022-08-09T12:42:59.740Z,4.90
2022-08-09T12:45:59.916Z,4.30
2022-08-09T12:48:42.478Z,4.30
2022-08-09T12:51:52.564Z,4.10
2022-08-09T12:54:29.342Z,4.50
2022-08-09T12:57:13.005Z,4.00
2022-08-09T13:00:13.159Z,4.90
2022-08-09T13:03:01.916Z,4.00
2022-08-09T13:06:14.307Z,4.20
2022-08-09T13:09:06.249Z,3.90
2022-08-09T13:11:51.433Z,4.60
2022-08-09T13:14:48.898Z,4.30
2022-08-09T13:18:02.897Z,4.90
2022-08-09T13:20:50.174Z,4.80
2022-08-09T13:24:06.275Z,4.60
2022-08-09T13:26:50.063Z,4.50
2022-08-09T13:30:03.020Z,4.40
2022-08-09T13:32:45.898Z,4.20
2022-08-09T13:35:34.451Z,5.40
2022-08-09T13:38:55.915Z,4.60
2022-08-09T13:41:58.670Z,4.80
2022-08-09T13:44:38.460Z,4.80
2022-08-09T13:47:33.879Z,4.10
2022-08-09T13:50:31.272Z,4.10
2022-08-09T13:53:16.117Z,4.30
2022-08-09T13:55:58.411Z,3.90
2022-08-09T13:58:40.702Z,4.10
2022-08-09T14:02:00.839Z,4.10
2022-08-09T14:04:26.548Z,4.40
2022-08-09T14:07:09.013Z,4.90
2022-08-09T14:09:53.380Z,5.10
2022-08-09T14:12:37.309Z,4.60
2022-08-09T14:16:06.659Z,4.40
2022-08-09T14:18:29.926Z,4.80
2022-08-09T14:21:18.004Z,4.60
2022-08-09T14:24:01.110Z,4.60
2022-08-09T14:26:51.313Z,4.80
2022-08-09T14:30:35.476Z,4.50
2022-08-09T14:32:38.066Z,4.70
2022-08-09T14:35:21.087Z,4.80
2022-08-09T14:38:04.826Z,4.80
2022-08-09T14:41:02.002Z,4.70
2022-08-09T14:43:53.710Z,4.60
2022-08-09T14:46:54.648Z,4.80
2022-08-09T14:49:49.036Z,4.50
2022-08-09T14:52:39.735Z,4.80
2022-08-09T14:55:22.860Z,4.40
2022-08-09T14:58:05.230Z,4.20
2022-08-09T15:00:50.802Z,4.30
2022-08-09T15:03:33.361Z,4.70
2022-08-09T15:06:15.256Z,4.20
2022-08-09T15:08:57.104Z,4.50
2022-08-09T15:11:38.947Z,4.00
2022-08-09T15:14:33.977Z,4.40
2022-08-09T15:17:16.663Z,4.40
2022-08-09T15:20:02.389Z,4.40
2022-08-09T15:22:47.332Z,4.20
2022-08-09T15:25:41.020Z,4.80
2022-08-09T15:28:28.181Z,5.50
2022-08-09T15:31:14.741Z,4.90
2022-08-09T15:34:17.666Z,4.20
2022-08-09T15:37:24.278Z,5.10
2022-08-09T15:40:21.942Z,4.20
2022-08-09T15:43:07.319Z,7.90
2022-08-09T15:46:18.841Z,4.70
2022-08-09T15:49:22.580Z,4.40
2022-08-09T15:52:02.728Z,4.50
2022-08-09T15:54:49.656Z,3.90
2022-08-09T15:57:35.933Z,3.70
2022-08-09T16:00:26.767Z,5.00
2022-08-09T16:03:08.952Z,3.70
2022-08-09T16:05:54.143Z,4.40
2022-08-09T16:08:37.094Z,3.90
2022-08-09T16:11:26.457Z,4.10
2022-08-09T16:14:08.763Z,3.60
2022-08-09T16:16:51.886Z,3.80
2022-08-09T16:19:36.685Z,4.60
2022-08-09T16:22:31.333Z,3.90
2022-08-09T16:25:13.959Z,4.00
2022-08-09T16:27:58.721Z,3.80
2022-08-09T16:30:44.668Z,3.30
2022-08-09T16:33:38.884Z,4.40
2022-08-09T16:36:21.050Z,4.10
2022-08-09T16:39:07.982Z,3.20
2022-08-09T16:42:03.624Z,4.20
2022-08-09T16:44:46.909Z,3.80
2022-08-09T16:48:38.093Z,4.00
2022-08-09T16:50:34.452Z,4.10
2022-08-09T16:53:17.120Z,3.90
2022-08-09T16:56:03.566Z,5.20
2022-08-09T16:58:50.767Z,4.10
2022-08-09T17:01:33.880Z,3.80
2022-08-09T17:04:28.165Z,3.80
2022-08-09T17:08:43.816Z,4.20
2022-08-09T17:10:18.159Z,3.90
2022-08-09T17:13:03.030Z,3.90
2022-08-09T17:15:59.055Z,4.00
2022-08-09T17:18:42.484Z,4.80
2022-08-09T17:21:29.035Z,4.80
2022-08-09T17:24:21.167Z,4.00
2022-08-09T17:27:15.421Z,4.70
2022-08-09T17:29:57.863Z,4.10
2022-08-09T17:32:40.238Z,4.20
2022-08-09T17:35:27.242Z,4.60
2022-08-09T17:38:24.293Z,4.30
2022-08-09T17:41:12.844Z,4.40
2022-08-09T17:44:38.715Z,4.40
2022-08-09T17:46:58.241Z,3.90
2022-08-09T17:49:51.324Z,4.00
2022-08-09T17:52:39.517Z,4.30
2022-08-09T17:55:21.543Z,3.90
2022-08-09T17:58:09.537Z,4.10
2022-08-09T18:00:54.993Z,4.20
2022-08-09T18:03:40.167Z,4.60
2022-08-09T18:06:30.894Z,4.40
2022-08-09T18:09:14.538Z,4.70
2022-08-09T18:12:14.411Z,4.10
2022-08-09T18:15:00.077Z,4.00
2022-08-09T18:18:02.886Z,3.90
2022-08-09T18:20:55.623Z,4.40
2022-08-09T18:26:48.182Z,5.00
2022-08-09T18:30:42.119Z,4.60
2022-08-09T18:32:34.576Z,4.50
2022-08-09T18:35:16.800Z,5.00
2022-08-09T18:37:58.841Z,4.90
2022-08-09T18:40:45.773Z,5.50
2022-08-09T18:43:28.628Z,4.50
2022-08-09T18:46:47.112Z,5.20
2022-08-09T18:49:43.251Z,5.00
2022-08-09T18:52:34.590Z,4.80
2022-08-09T18:55:17.449Z,4.70
2022-08-09T18:58:11.325Z,5.00
2022-08-09T19:01:01.825Z,4.70
2022-08-09T19:04:01.427Z,5.20
2022-08-09T19:06:50.701Z,5.00
2022-08-09T19:10:17.050Z,4.80
2022-08-09T19:12:38.037Z,6.00
2022-08-09T19:15:20.863Z,5.40
2022-08-09T19:18:07.362Z,5.50
2022-08-09T19:21:00.953Z,4.80
2022-08-09T19:24:32.714Z,5.40
2022-08-09T19:26:48.809Z,5.30
2022-08-09T19:29:38.125Z,5.10
2022-08-09T19:32:37.517Z,5.40
2022-08-09T19:35:20.592Z,5.50
2022-08-09T19:38:08.426Z,5.50
2022-08-09T19:40:50.545Z,5.30
2022-08-09T19:44:01.498Z,4.60
2022-08-09T19:46:39.882Z,5.60
2022-08-09T19:50:05.298Z,5.10
2022-08-09T19:52:35.122Z,5.80
2022-08-09T19:55:19.732Z,5.40
2022-08-09T19:58:15.972Z,6.30
2022-08-09T20:00:59.303Z,6.50
2022-08-09T20:04:08.278Z,6.50
2022-08-09T20:06:43.742Z,6.10
2022-08-09T20:09:45.184Z,6.60
2022-08-09T20:16:38.057Z,6.80
2022-08-09T20:18:29.288Z,6.70
2022-08-09T20:21:13.127Z,6.70
2022-08-09T20:23:58.299Z,7.20
2022-08-09T20:26:42.242Z,7.10
2022-08-09T20:29:37.195Z,7.00
2022-08-09T20:32:41.990Z,6.70
2022-08-09T20:35:36.262Z,7.00
2022-08-09T20:38:30.886Z,6.90
2022-08-09T20:41:34.721Z,6.90
2022-08-09T20:44:36.553Z,7.10
2022-08-09T20:47:45.542Z,6.10
2022-08-09T20:50:47.859Z,5.90
2022-08-09T20:53:36.888Z,6.90
2022-08-09T20:56:21.958Z,8.10
2022-08-09T21:04:07.843Z,7.80
2022-08-09T21:06:56.630Z,6.60
2022-08-09T21:09:56.486Z,7.20
2022-08-09T21:15:51.974Z,7.50
2022-08-09T21:19:16.927Z,7.60
2022-08-09T21:21:57.396Z,8.50
2022-08-09T21:25:00.979Z,6.60
2022-08-09T21:28:01.429Z,8.30
2022-08-09T21:30:52.324Z,8.30
2022-08-09T21:33:41.791Z,8.90
2022-08-09T21:36:28.901Z,8.30
2022-08-09T21:39:21.816Z,8.00
2022-08-09T21:42:12.046Z,7.90
2022-08-09T21:44:56.962Z,7.70
2022-08-09T21:47:44.718Z,8.20
2022-08-09T21:50:38.395Z,7.80
2022-08-09T21:53:40.087Z,7.70
2022-08-09T21:56:33.994Z,7.90
2022-08-09T21:59:25.576Z,7.10
2022-08-09T22:02:08.528Z,8.40
2022-08-09T22:05:17.109Z,8.20
2022-08-09T22:08:01.779Z,7.80
2022-08-09T22:11:50.505Z,8.40
2022-08-09T22:13:50.456Z,7.20
2022-08-09T22:16:37.214Z,7.50
2022-08-09T22:19:23.902Z,7.40
2022-08-09T22:22:22.152Z,7.50
2022-08-09T22:26:09.008Z,7.80
2022-08-09T22:28:07.217Z,7.50
2022-08-09T22:30:49.547Z,7.40
2022-08-09T22:33:42.491Z,8.30
2022-08-09T22:36:45.659Z,8.10
2022-08-09T22:39:55.363Z,8.20
2022-08-09T22:42:31.301Z,7.90
2022-08-09T22:48:10.307Z,8.60
2022-08-09T22:48:35.522Z,9.00
2022-08-09T22:51:24.213Z,8.60
2022-08-09T22:54:07.983Z,7.10
2022-08-09T22:56:56.803Z,7.70
2022-08-09T22:59:58.413Z,8.70
2022-08-09T23:02:41.089Z,9.10
2022-08-09T23:05:28.663Z,8.80
2022-08-09T23:08:30.391Z,8.40
2022-08-09T23:11:21.976Z,8.90
2022-08-09T23:14:10.050Z,9.00
2022-08-09T23:16:52.320Z,8.00
2022-08-09T23:20:01.130Z,10.50
2022-08-09T23:22:36.034Z,10.70
2022-08-09T23:25:18.079Z,10.40
2022-08-09T23:28:14.889Z,10.20
2022-08-09T23:30:58.872Z,9.70
2022-08-09T23:33:40.971Z,9.80
2022-08-09T23:36:22.867Z,8.10
2022-08-09T23:39:06.423Z,9.00
2022-08-09T23:41:48.398Z,8.80
2022-08-09T23:44:30.410Z,9.50
2022-08-09T23:47:12.503Z,9.60
2022-08-09T23:49:54.495Z,9.30
2022-08-09T23:52:36.500Z,10.90
2022-08-09T23:55:19.722Z,9.90
2022-08-09T23:58:10.569Z,9.50
